sensor_id;sensor_type;location;lat;lon;timestamp;P1;durP1;ratioP1;P2;durP2;ratioP2
23222;SDS011;11780;13.904;100.620;2023-11-19T00:01:03;22.67;;;14.60;;
23222;SDS011;11780;13.904;100.620;2023-11-19T00:03:35;24.88;;;14.00;;
23222;SDS011;11780;13.904;100.620;2023-11-19T00:06:05;27.55;;;15.40;;
23222;SDS011;11780;13.904;100.620;2023-11-19T00:08:35;22.77;;;15.00;;
23222;SDS011;11780;13.904;100.620;2023-11-19T00:11:06;24.58;;;14.18;;
23222;SDS011;11780;13.904;100.620;2023-11-19T00:13:36;25.30;;;13.98;;
23222;SDS011;11780;13.904;100.620;2023-11-19T00:16:06;27.02;;;14.73;;
23222;SDS011;11780;13.904;100.620;2023-11-19T00:18:38;26.00;;;14.23;;
23222;SDS011;11780;13.904;100.620;2023-11-19T00:21:09;26.15;;;13.38;;
23222;SDS011;11780;13.904;100.620;2023-11-19T00:23:39;31.80;;;15.18;;
23222;SDS011;11780;13.904;100.620;2023-11-19T00:26:09;29.98;;;14.43;;
23222;SDS011;11780;13.904;100.620;2023-11-19T00:28:43;33.08;;;16.77;;
23222;SDS011;11780;13.904;100.620;2023-11-19T00:31:13;19.17;;;14.38;;
23222;SDS011;11780;13.904;100.620;2023-11-19T00:33:44;26.60;;;15.20;;
23222;SDS011;11780;13.904;100.620;2023-11-19T00:36:16;26.42;;;15.27;;
23222;SDS011;11780;13.904;100.620;2023-11-19T00:38:47;26.47;;;16.57;;
23222;SDS011;11780;13.904;100.620;2023-11-19T00:41:17;31.77;;;17.00;;
23222;SDS011;11780;13.904;100.620;2023-11-19T00:43:47;30.15;;;16.63;;
23222;SDS011;11780;13.904;100.620;2023-11-19T00:46:18;25.03;;;16.97;;
23222;SDS011;11780;13.904;100.620;2023-11-19T00:48:49;35.65;;;15.68;;
23222;SDS011;11780;13.904;100.620;2023-11-19T00:51:19;25.55;;;15.98;;
23222;SDS011;11780;13.904;100.620;2023-11-19T00:53:50;26.97;;;14.80;;
23222;SDS011;11780;13.904;100.620;2023-11-19T00:56:20;32.17;;;16.10;;
23222;SDS011;11780;13.904;100.620;2023-11-19T00:58:50;23.73;;;15.10;;
23222;SDS011;11780;13.904;100.620;2023-11-19T01:01:20;25.50;;;14.52;;
23222;SDS011;11780;13.904;100.620;2023-11-19T01:03:51;22.77;;;14.90;;
23222;SDS011;11780;13.904;100.620;2023-11-19T01:06:31;26.90;;;15.88;;
23222;SDS011;11780;13.904;100.620;2023-11-19T01:09:02;21.60;;;15.10;;
23222;SDS011;11780;13.904;100.620;2023-11-19T01:12:03;23.55;;;15.13;;
23222;SDS011;11780;13.904;100.620;2023-11-19T01:14:34;32.10;;;15.90;;
23222;SDS011;11780;13.904;100.620;2023-11-19T01:17:05;26.40;;;14.37;;
23222;SDS011;11780;13.904;100.620;2023-11-19T01:19:35;27.20;;;15.35;;
23222;SDS011;11780;13.904;100.620;2023-11-19T01:22:05;23.52;;;14.02;;
23222;SDS011;11780;13.904;100.620;2023-11-19T01:24:36;27.30;;;13.75;;
23222;SDS011;11780;13.904;100.620;2023-11-19T01:27:06;26.65;;;13.77;;
23222;SDS011;11780;13.904;100.620;2023-11-19T01:29:36;22.77;;;14.18;;
23222;SDS011;11780;13.904;100.620;2023-11-19T01:32:07;24.52;;;14.57;;
23222;SDS011;11780;13.904;100.620;2023-11-19T01:34:37;25.00;;;13.50;;
23222;SDS011;11780;13.904;100.620;2023-11-19T01:37:07;27.95;;;14.68;;
23222;SDS011;11780;13.904;100.620;2023-11-19T01:39:39;25.45;;;14.63;;
23222;SDS011;11780;13.904;100.620;2023-11-19T01:42:09;22.27;;;13.43;;
23222;SDS011;11780;13.904;100.620;2023-11-19T01:44:41;23.48;;;13.52;;
23222;SDS011;11780;13.904;100.620;2023-11-19T01:47:11;26.17;;;15.55;;
23222;SDS011;11780;13.904;100.620;2023-11-19T01:49:42;23.67;;;15.57;;
23222;SDS011;11780;13.904;100.620;2023-11-19T01:52:12;20.83;;;14.27;;
23222;SDS011;11780;13.904;100.620;2023-11-19T01:54:42;27.23;;;16.20;;
23222;SDS011;11780;13.904;100.620;2023-11-19T01:57:13;35.40;;;17.88;;
23222;SDS011;11780;13.904;100.620;2023-11-19T01:59:44;30.02;;;15.52;;
23222;SDS011;11780;13.904;100.620;2023-11-19T02:02:14;30.70;;;16.33;;
23222;SDS011;11780;13.904;100.620;2023-11-19T02:04:45;26.63;;;15.93;;
23222;SDS011;11780;13.904;100.620;2023-11-19T02:07:20;23.48;;;15.90;;
23222;SDS011;11780;13.904;100.620;2023-11-19T02:09:51;27.35;;;15.25;;
23222;SDS011;11780;13.904;100.620;2023-11-19T02:12:21;24.45;;;15.18;;
23222;SDS011;11780;13.904;100.620;2023-11-19T02:14:52;28.80;;;15.43;;
23222;SDS011;11780;13.904;100.620;2023-11-19T02:17:31;29.55;;;17.02;;
23222;SDS011;11780;13.904;100.620;2023-11-19T02:20:02;29.30;;;15.85;;
23222;SDS011;11780;13.904;100.620;2023-11-19T02:22:36;28.55;;;15.25;;
23222;SDS011;11780;13.904;100.620;2023-11-19T02:25:17;27.30;;;14.50;;
23222;SDS011;11780;13.904;100.620;2023-11-19T02:30:26;23.58;;;14.93;;
23222;SDS011;11780;13.904;100.620;2023-11-19T02:32:58;23.95;;;13.45;;
23222;SDS011;11780;13.904;100.620;2023-11-19T02:35:33;26.23;;;14.65;;
23222;SDS011;11780;13.904;100.620;2023-11-19T02:38:04;24.98;;;13.70;;
23222;SDS011;11780;13.904;100.620;2023-11-19T02:40:36;27.33;;;13.63;;
23222;SDS011;11780;13.904;100.620;2023-11-19T02:43:06;28.33;;;13.25;;
23222;SDS011;11780;13.904;100.620;2023-11-19T02:48:07;20.70;;;13.32;;
23222;SDS011;11780;13.904;100.620;2023-11-19T02:50:38;25.02;;;12.95;;
23222;SDS011;11780;13.904;100.620;2023-11-19T02:53:08;23.15;;;14.05;;
23222;SDS011;11780;13.904;100.620;2023-11-19T02:55:38;24.27;;;13.70;;
23222;SDS011;11780;13.904;100.620;2023-11-19T02:58:10;20.10;;;11.57;;
23222;SDS011;11780;13.904;100.620;2023-11-19T03:00:49;21.48;;;13.35;;
23222;SDS011;11780;13.904;100.620;2023-11-19T03:03:31;20.85;;;12.20;;
23222;SDS011;11780;13.904;100.620;2023-11-19T03:06:08;23.08;;;12.18;;
23222;SDS011;11780;13.904;100.620;2023-11-19T03:08:39;20.17;;;12.98;;
23222;SDS011;11780;13.904;100.620;2023-11-19T03:11:09;24.40;;;12.80;;
23222;SDS011;11780;13.904;100.620;2023-11-19T03:13:39;23.48;;;13.57;;
23222;SDS011;11780;13.904;100.620;2023-11-19T03:16:09;20.75;;;11.40;;
23222;SDS011;11780;13.904;100.620;2023-11-19T03:18:41;18.83;;;11.20;;
23222;SDS011;11780;13.904;100.620;2023-11-19T03:21:11;19.65;;;11.57;;
23222;SDS011;11780;13.904;100.620;2023-11-19T03:23:41;21.60;;;10.38;;
23222;SDS011;11780;13.904;100.620;2023-11-19T03:26:12;19.00;;;10.30;;
23222;SDS011;11780;13.904;100.620;2023-11-19T03:28:42;16.70;;;11.10;;
23222;SDS011;11780;13.904;100.620;2023-11-19T03:31:13;23.75;;;11.45;;
23222;SDS011;11780;13.904;100.620;2023-11-19T03:33:43;15.25;;;10.52;;
23222;SDS011;11780;13.904;100.620;2023-11-19T03:36:13;12.25;;;10.10;;
23222;SDS011;11780;13.904;100.620;2023-11-19T03:38:43;17.85;;;11.60;;
23222;SDS011;11780;13.904;100.620;2023-11-19T03:41:15;19.40;;;10.70;;
23222;SDS011;11780;13.904;100.620;2023-11-19T03:43:46;17.05;;;9.98;;
23222;SDS011;11780;13.904;100.620;2023-11-19T03:46:17;17.17;;;10.20;;
23222;SDS011;11780;13.904;100.620;2023-11-19T03:48:49;16.98;;;10.52;;
23222;SDS011;11780;13.904;100.620;2023-11-19T03:51:19;18.63;;;10.65;;
23222;SDS011;11780;13.904;100.620;2023-11-19T03:53:50;14.57;;;10.45;;
23222;SDS011;11780;13.904;100.620;2023-11-19T03:56:20;16.13;;;10.75;;
23222;SDS011;11780;13.904;100.620;2023-11-19T03:58:50;14.53;;;9.90;;
23222;SDS011;11780;13.904;100.620;2023-11-19T04:01:21;15.20;;;10.25;;
23222;SDS011;11780;13.904;100.620;2023-11-19T04:03:51;17.83;;;9.88;;
23222;SDS011;11780;13.904;100.620;2023-11-19T04:06:22;21.25;;;9.77;;
23222;SDS011;11780;13.904;100.620;2023-11-19T04:08:52;14.35;;;10.50;;
23222;SDS011;11780;13.904;100.620;2023-11-19T04:11:22;14.45;;;9.85;;
23222;SDS011;11780;13.904;100.620;2023-11-19T04:13:53;17.30;;;9.95;;
23222;SDS011;11780;13.904;100.620;2023-11-19T04:16:26;18.20;;;10.98;;
23222;SDS011;11780;13.904;100.620;2023-11-19T04:18:58;20.77;;;11.10;;
23222;SDS011;11780;13.904;100.620;2023-11-19T04:21:28;18.67;;;9.50;;
23222;SDS011;11780;13.904;100.620;2023-11-19T04:23:58;16.63;;;10.07;;
23222;SDS011;11780;13.904;100.620;2023-11-19T04:26:28;14.90;;;9.40;;
23222;SDS011;11780;13.904;100.620;2023-11-19T04:29:00;17.90;;;10.90;;
23222;SDS011;11780;13.904;100.620;2023-11-19T04:31:30;17.90;;;10.85;;
23222;SDS011;11780;13.904;100.620;2023-11-19T04:34:01;16.42;;;9.93;;
23222;SDS011;11780;13.904;100.620;2023-11-19T04:36:31;19.15;;;11.05;;
23222;SDS011;11780;13.904;100.620;2023-11-19T04:39:02;22.27;;;12.90;;
23222;SDS011;11780;13.904;100.620;2023-11-19T04:41:36;30.70;;;21.30;;
23222;SDS011;11780;13.904;100.620;2023-11-19T04:44:15;30.70;;;18.83;;
23222;SDS011;11780;13.904;100.620;2023-11-19T04:46:46;20.52;;;14.57;;
23222;SDS011;11780;13.904;100.620;2023-11-19T04:49:17;27.77;;;15.60;;
23222;SDS011;11780;13.904;100.620;2023-11-19T04:51:48;24.52;;;16.25;;
23222;SDS011;11780;13.904;100.620;2023-11-19T04:54:20;19.13;;;12.43;;
23222;SDS011;11780;13.904;100.620;2023-11-19T04:56:50;18.75;;;12.82;;
23222;SDS011;11780;13.904;100.620;2023-11-19T04:59:20;18.75;;;13.68;;
23222;SDS011;11780;13.904;100.620;2023-11-19T05:01:50;16.23;;;12.35;;
23222;SDS011;11780;13.904;100.620;2023-11-19T05:04:21;22.58;;;12.18;;
23222;SDS011;11780;13.904;100.620;2023-11-19T05:06:51;20.95;;;11.95;;
23222;SDS011;11780;13.904;100.620;2023-11-19T05:09:22;19.98;;;12.68;;
23222;SDS011;11780;13.904;100.620;2023-11-19T05:11:52;19.58;;;11.40;;
23222;SDS011;11780;13.904;100.620;2023-11-19T05:14:23;20.63;;;11.90;;
23222;SDS011;11780;13.904;100.620;2023-11-19T05:16:53;20.13;;;12.43;;
23222;SDS011;11780;13.904;100.620;2023-11-19T05:19:24;23.60;;;12.15;;
23222;SDS011;11780;13.904;100.620;2023-11-19T05:21:54;22.80;;;12.57;;
23222;SDS011;11780;13.904;100.620;2023-11-19T05:24:25;20.07;;;13.17;;
23222;SDS011;11780;13.904;100.620;2023-11-19T05:26:55;23.23;;;13.32;;
23222;SDS011;11780;13.904;100.620;2023-11-19T05:29:25;20.70;;;12.27;;
23222;SDS011;11780;13.904;100.620;2023-11-19T05:31:57;23.25;;;12.25;;
23222;SDS011;11780;13.904;100.620;2023-11-19T05:34:27;19.67;;;12.52;;
23222;SDS011;11780;13.904;100.620;2023-11-19T05:36:58;21.17;;;12.40;;
23222;SDS011;11780;13.904;100.620;2023-11-19T05:39:28;18.10;;;12.60;;
23222;SDS011;11780;13.904;100.620;2023-11-19T05:41:58;19.33;;;12.18;;
23222;SDS011;11780;13.904;100.620;2023-11-19T05:44:29;22.67;;;12.63;;
23222;SDS011;11780;13.904;100.620;2023-11-19T05:46:59;20.65;;;11.85;;
23222;SDS011;11780;13.904;100.620;2023-11-19T05:49:29;24.67;;;12.10;;
23222;SDS011;11780;13.904;100.620;2023-11-19T05:51:59;23.05;;;12.45;;
23222;SDS011;11780;13.904;100.620;2023-11-19T05:54:32;18.77;;;12.27;;
23222;SDS011;11780;13.904;100.620;2023-11-19T05:57:07;20.73;;;14.70;;
23222;SDS011;11780;13.904;100.620;2023-11-19T05:59:38;17.15;;;12.13;;
23222;SDS011;11780;13.904;100.620;2023-11-19T06:02:08;19.15;;;12.25;;
23222;SDS011;11780;13.904;100.620;2023-11-19T06:04:39;21.15;;;11.70;;
23222;SDS011;11780;13.904;100.620;2023-11-19T06:07:09;19.70;;;10.85;;
23222;SDS011;11780;13.904;100.620;2023-11-19T06:09:39;16.52;;;11.05;;
23222;SDS011;11780;13.904;100.620;2023-11-19T06:12:09;17.42;;;10.90;;
23222;SDS011;11780;13.904;100.620;2023-11-19T06:14:40;21.33;;;10.85;;
23222;SDS011;11780;13.904;100.620;2023-11-19T06:17:10;22.17;;;10.77;;
23222;SDS011;11780;13.904;100.620;2023-11-19T06:19:41;19.83;;;10.73;;
23222;SDS011;11780;13.904;100.620;2023-11-19T06:22:11;18.55;;;10.57;;
23222;SDS011;11780;13.904;100.620;2023-11-19T06:24:41;19.13;;;10.85;;
23222;SDS011;11780;13.904;100.620;2023-11-19T06:27:12;18.20;;;11.25;;
23222;SDS011;11780;13.904;100.620;2023-11-19T06:29:42;22.85;;;11.20;;
23222;SDS011;11780;13.904;100.620;2023-11-19T06:32:12;23.35;;;10.82;;
23222;SDS011;11780;13.904;100.620;2023-11-19T06:34:42;23.27;;;12.80;;
23222;SDS011;11780;13.904;100.620;2023-11-19T06:37:12;19.98;;;11.30;;
23222;SDS011;11780;13.904;100.620;2023-11-19T06:39:43;18.38;;;12.05;;
23222;SDS011;11780;13.904;100.620;2023-11-19T06:42:13;18.52;;;11.00;;
23222;SDS011;11780;13.904;100.620;2023-11-19T06:44:43;22.92;;;12.45;;
23222;SDS011;11780;13.904;100.620;2023-11-19T06:47:13;19.67;;;10.90;;
23222;SDS011;11780;13.904;100.620;2023-11-19T06:49:44;19.48;;;11.23;;
23222;SDS011;11780;13.904;100.620;2023-11-19T06:52:15;19.10;;;11.83;;
23222;SDS011;11780;13.904;100.620;2023-11-19T06:54:46;13.75;;;10.00;;
23222;SDS011;11780;13.904;100.620;2023-11-19T06:57:16;23.03;;;10.90;;
23222;SDS011;11780;13.904;100.620;2023-11-19T06:59:47;22.23;;;10.38;;
23222;SDS011;11780;13.904;100.620;2023-11-19T07:02:17;16.88;;;10.82;;
23222;SDS011;11780;13.904;100.620;2023-11-19T07:04:49;17.58;;;11.27;;
23222;SDS011;11780;13.904;100.620;2023-11-19T07:07:21;24.52;;;10.57;;
23222;SDS011;11780;13.904;100.620;2023-11-19T07:09:51;16.80;;;10.70;;
23222;SDS011;11780;13.904;100.620;2023-11-19T07:12:21;18.23;;;10.02;;
23222;SDS011;11780;13.904;100.620;2023-11-19T07:14:52;16.85;;;10.75;;
23222;SDS011;11780;13.904;100.620;2023-11-19T07:17:22;16.20;;;10.03;;
23222;SDS011;11780;13.904;100.620;2023-11-19T07:19:53;17.80;;;9.70;;
23222;SDS011;11780;13.904;100.620;2023-11-19T07:22:23;18.95;;;10.15;;
23222;SDS011;11780;13.904;100.620;2023-11-19T07:24:54;20.90;;;10.75;;
23222;SDS011;11780;13.904;100.620;2023-11-19T07:27:26;17.67;;;10.23;;
23222;SDS011;11780;13.904;100.620;2023-11-19T07:29:56;18.15;;;10.55;;
23222;SDS011;11780;13.904;100.620;2023-11-19T07:32:27;18.70;;;10.53;;
23222;SDS011;11780;13.904;100.620;2023-11-19T07:34:57;18.13;;;9.48;;
23222;SDS011;11780;13.904;100.620;2023-11-19T07:37:28;19.25;;;9.57;;
23222;SDS011;11780;13.904;100.620;2023-11-19T07:39:58;17.45;;;9.27;;
23222;SDS011;11780;13.904;100.620;2023-11-19T07:42:28;18.05;;;9.13;;
23222;SDS011;11780;13.904;100.620;2023-11-19T07:44:58;15.63;;;10.23;;
23222;SDS011;11780;13.904;100.620;2023-11-19T07:49:59;14.40;;;9.75;;
23222;SDS011;11780;13.904;100.620;2023-11-19T07:52:30;14.77;;;9.30;;
23222;SDS011;11780;13.904;100.620;2023-11-19T07:55:00;19.83;;;10.57;;
23222;SDS011;11780;13.904;100.620;2023-11-19T07:57:31;20.23;;;9.60;;
23222;SDS011;11780;13.904;100.620;2023-11-19T08:00:02;21.02;;;10.00;;
23222;SDS011;11780;13.904;100.620;2023-11-19T08:02:38;18.85;;;10.85;;
23222;SDS011;11780;13.904;100.620;2023-11-19T08:05:08;18.07;;;10.00;;
23222;SDS011;11780;13.904;100.620;2023-11-19T08:07:39;15.75;;;9.85;;
23222;SDS011;11780;13.904;100.620;2023-11-19T08:10:10;16.52;;;10.07;;
23222;SDS011;11780;13.904;100.620;2023-11-19T08:12:40;11.85;;;9.73;;
23222;SDS011;11780;13.904;100.620;2023-11-19T08:15:11;15.73;;;9.27;;
23222;SDS011;11780;13.904;100.620;2023-11-19T08:17:57;19.23;;;10.52;;
23222;SDS011;11780;13.904;100.620;2023-11-19T08:20:27;18.83;;;9.80;;
23222;SDS011;11780;13.904;100.620;2023-11-19T08:22:58;16.13;;;9.97;;
23222;SDS011;11780;13.904;100.620;2023-11-19T08:25:28;10.93;;;8.57;;
23222;SDS011;11780;13.904;100.620;2023-11-19T08:27:59;15.33;;;10.03;;
23222;SDS011;11780;13.904;100.620;2023-11-19T08:30:30;17.95;;;9.90;;
23222;SDS011;11780;13.904;100.620;2023-11-19T08:33:00;19.00;;;10.40;;
23222;SDS011;11780;13.904;100.620;2023-11-19T08:35:32;17.50;;;11.20;;
23222;SDS011;11780;13.904;100.620;2023-11-19T08:38:02;19.97;;;10.17;;
23222;SDS011;11780;13.904;100.620;2023-11-19T08:40:33;17.80;;;10.43;;
23222;SDS011;11780;13.904;100.620;2023-11-19T08:45:34;14.75;;;10.30;;
23222;SDS011;11780;13.904;100.620;2023-11-19T08:48:04;16.98;;;10.07;;
23222;SDS011;11780;13.904;100.620;2023-11-19T08:50:34;18.37;;;9.47;;
23222;SDS011;11780;13.904;100.620;2023-11-19T08:53:05;16.35;;;10.00;;
23222;SDS011;11780;13.904;100.620;2023-11-19T08:55:36;15.68;;;9.82;;
23222;SDS011;11780;13.904;100.620;2023-11-19T08:58:06;14.57;;;9.95;;
23222;SDS011;11780;13.904;100.620;2023-11-19T09:00:36;17.05;;;10.27;;
23222;SDS011;11780;13.904;100.620;2023-11-19T09:03:07;15.07;;;9.70;;
23222;SDS011;11780;13.904;100.620;2023-11-19T09:05:39;15.30;;;9.73;;
23222;SDS011;11780;13.904;100.620;2023-11-19T09:08:09;16.73;;;9.97;;
23222;SDS011;11780;13.904;100.620;2023-11-19T09:10:41;20.77;;;10.07;;
23222;SDS011;11780;13.904;100.620;2023-11-19T09:13:12;21.60;;;9.93;;
23222;SDS011;11780;13.904;100.620;2023-11-19T09:15:42;15.13;;;9.88;;
23222;SDS011;11780;13.904;100.620;2023-11-19T09:18:12;18.08;;;10.05;;
23222;SDS011;11780;13.904;100.620;2023-11-19T09:20:42;14.80;;;9.75;;
23222;SDS011;11780;13.904;100.620;2023-11-19T09:23:13;13.87;;;9.47;;
23222;SDS011;11780;13.904;100.620;2023-11-19T09:25:43;15.43;;;9.15;;
23222;SDS011;11780;13.904;100.620;2023-11-19T09:28:14;17.75;;;10.25;;
23222;SDS011;11780;13.904;100.620;2023-11-19T09:30:44;19.23;;;9.88;;
23222;SDS011;11780;13.904;100.620;2023-11-19T09:33:15;19.20;;;10.55;;
23222;SDS011;11780;13.904;100.620;2023-11-19T09:35:45;16.45;;;10.77;;
23222;SDS011;11780;13.904;100.620;2023-11-19T09:38:15;15.75;;;10.02;;
23222;SDS011;11780;13.904;100.620;2023-11-19T09:40:46;17.77;;;9.40;;
23222;SDS011;11780;13.904;100.620;2023-11-19T09:43:17;21.33;;;10.50;;
23222;SDS011;11780;13.904;100.620;2023-11-19T09:45:48;16.40;;;10.43;;
23222;SDS011;11780;13.904;100.620;2023-11-19T09:48:22;17.05;;;11.38;;
23222;SDS011;11780;13.904;100.620;2023-11-19T09:50:55;19.38;;;11.38;;
23222;SDS011;11780;13.904;100.620;2023-11-19T09:53:25;19.40;;;11.20;;
23222;SDS011;11780;13.904;100.620;2023-11-19T09:55:56;20.38;;;11.63;;
23222;SDS011;11780;13.904;100.620;2023-11-19T09:58:27;20.05;;;11.88;;
23222;SDS011;11780;13.904;100.620;2023-11-19T10:00:58;15.93;;;11.40;;
23222;SDS011;11780;13.904;100.620;2023-11-19T10:03:48;20.90;;;11.98;;
23222;SDS011;11780;13.904;100.620;2023-11-19T10:06:23;18.38;;;12.23;;
23222;SDS011;11780;13.904;100.620;2023-11-19T10:08:56;22.25;;;11.70;;
23222;SDS011;11780;13.904;100.620;2023-11-19T10:11:26;17.83;;;11.30;;
23222;SDS011;11780;13.904;100.620;2023-11-19T10:13:57;17.60;;;11.40;;
23222;SDS011;11780;13.904;100.620;2023-11-19T10:16:29;17.00;;;10.25;;
23222;SDS011;11780;13.904;100.620;2023-11-19T10:19:00;19.33;;;10.30;;
23222;SDS011;11780;13.904;100.620;2023-11-19T10:24:05;18.98;;;11.40;;
23222;SDS011;11780;13.904;100.620;2023-11-19T10:26:36;15.95;;;10.88;;
23222;SDS011;11780;13.904;100.620;2023-11-19T10:29:07;19.73;;;10.77;;
23222;SDS011;11780;13.904;100.620;2023-11-19T10:31:37;21.63;;;11.67;;
23222;SDS011;11780;13.904;100.620;2023-11-19T10:34:14;16.23;;;10.75;;
23222;SDS011;11780;13.904;100.620;2023-11-19T10:36:55;17.33;;;11.25;;
23222;SDS011;11780;13.904;100.620;2023-11-19T10:39:29;17.85;;;10.32;;
23222;SDS011;11780;13.904;100.620;2023-11-19T10:44:56;22.05;;;13.40;;
23222;SDS011;11780;13.904;100.620;2023-11-19T10:47:27;21.88;;;13.70;;
23222;SDS011;11780;13.904;100.620;2023-11-19T10:50:02;16.63;;;12.50;;
23222;SDS011;11780;13.904;100.620;2023-11-19T10:52:33;20.45;;;12.43;;
23222;SDS011;11780;13.904;100.620;2023-11-19T10:55:04;20.38;;;12.25;;
23222;SDS011;11780;13.904;100.620;2023-11-19T10:57:41;19.52;;;12.10;;
23222;SDS011;11780;13.904;100.620;2023-11-19T11:00:16;19.48;;;12.18;;
23222;SDS011;11780;13.904;100.620;2023-11-19T11:02:54;25.05;;;13.20;;
23222;SDS011;11780;13.904;100.620;2023-11-19T11:05:32;19.48;;;13.10;;
23222;SDS011;11780;13.904;100.620;2023-11-19T11:08:06;24.10;;;13.27;;
23222;SDS011;11780;13.904;100.620;2023-11-19T11:10:39;19.90;;;13.37;;
23222;SDS011;11780;13.904;100.620;2023-11-19T11:13:22;19.48;;;12.30;;
23222;SDS011;11780;13.904;100.620;2023-11-19T11:16:00;16.80;;;12.57;;
23222;SDS011;11780;13.904;100.620;2023-11-19T11:18:31;23.25;;;12.98;;
23222;SDS011;11780;13.904;100.620;2023-11-19T11:21:05;23.10;;;14.40;;
23222;SDS011;11780;13.904;100.620;2023-11-19T11:30:06;27.70;;;15.32;;
23222;SDS011;11780;13.904;100.620;2023-11-19T11:33:06;24.92;;;15.57;;
23222;SDS011;11780;13.904;100.620;2023-11-19T11:38:50;20.05;;;15.75;;
23222;SDS011;11780;13.904;100.620;2023-11-19T11:41:21;25.02;;;16.17;;
23222;SDS011;11780;13.904;100.620;2023-11-19T11:43:56;31.08;;;17.55;;
23222;SDS011;11780;13.904;100.620;2023-11-19T11:49:03;23.65;;;16.83;;
23222;SDS011;11780;13.904;100.620;2023-11-19T11:54:28;29.42;;;17.80;;
23222;SDS011;11780;13.904;100.620;2023-11-19T11:59:52;30.17;;;17.83;;
23222;SDS011;11780;13.904;100.620;2023-11-19T12:02:23;24.40;;;18.45;;
23222;SDS011;11780;13.904;100.620;2023-11-19T12:04:55;28.63;;;19.05;;
23222;SDS011;11780;13.904;100.620;2023-11-19T12:07:26;27.25;;;17.92;;
23222;SDS011;11780;13.904;100.620;2023-11-19T12:10:06;29.13;;;18.63;;
23222;SDS011;11780;13.904;100.620;2023-11-19T12:12:40;24.08;;;17.95;;
23222;SDS011;11780;13.904;100.620;2023-11-19T12:15:11;38.93;;;18.13;;
23222;SDS011;11780;13.904;100.620;2023-11-19T12:17:47;33.65;;;18.00;;
23222;SDS011;11780;13.904;100.620;2023-11-19T12:20:22;26.45;;;18.17;;
23222;SDS011;11780;13.904;100.620;2023-11-19T12:22:56;30.25;;;17.58;;
23222;SDS011;11780;13.904;100.620;2023-11-19T12:25:27;27.98;;;17.52;;
23222;SDS011;11780;13.904;100.620;2023-11-19T12:27:57;27.83;;;17.83;;
23222;SDS011;11780;13.904;100.620;2023-11-19T12:30:27;25.43;;;17.27;;
23222;SDS011;11780;13.904;100.620;2023-11-19T12:32:59;31.10;;;18.55;;
23222;SDS011;11780;13.904;100.620;2023-11-19T12:35:29;25.17;;;16.98;;
23222;SDS011;11780;13.904;100.620;2023-11-19T12:38:00;27.95;;;18.15;;
23222;SDS011;11780;13.904;100.620;2023-11-19T12:40:30;30.38;;;18.85;;
23222;SDS011;11780;13.904;100.620;2023-11-19T12:43:00;33.38;;;20.17;;
23222;SDS011;11780;13.904;100.620;2023-11-19T12:47:15;30.08;;;19.90;;
23222;SDS011;11780;13.904;100.620;2023-11-19T12:49:57;33.50;;;21.25;;
23222;SDS011;11780;13.904;100.620;2023-11-19T12:52:27;33.58;;;19.63;;
23222;SDS011;11780;13.904;100.620;2023-11-19T12:54:58;34.33;;;20.30;;
23222;SDS011;11780;13.904;100.620;2023-11-19T12:58:04;31.35;;;19.90;;
23222;SDS011;11780;13.904;100.620;2023-11-19T13:00:27;31.63;;;19.70;;
23222;SDS011;11780;13.904;100.620;2023-11-19T13:02:59;29.67;;;18.38;;
23222;SDS011;11780;13.904;100.620;2023-11-19T13:05:30;28.33;;;18.73;;
23222;SDS011;11780;13.904;100.620;2023-11-19T13:13:20;26.67;;;17.95;;
23222;SDS011;11780;13.904;100.620;2023-11-19T13:15:51;20.75;;;15.80;;
23222;SDS011;11780;13.904;100.620;2023-11-19T13:18:22;29.17;;;18.40;;
23222;SDS011;11780;13.904;100.620;2023-11-19T13:21:11;27.50;;;16.90;;
23222;SDS011;11780;13.904;100.620;2023-11-19T13:23:42;23.60;;;16.00;;
23222;SDS011;11780;13.904;100.620;2023-11-19T13:26:13;29.20;;;17.50;;
23222;SDS011;11780;13.904;100.620;2023-11-19T13:28:43;25.83;;;16.57;;
23222;SDS011;11780;13.904;100.620;2023-11-19T13:31:14;21.80;;;16.00;;
23222;SDS011;11780;13.904;100.620;2023-11-19T13:33:45;24.65;;;16.30;;
23222;SDS011;11780;13.904;100.620;2023-11-19T13:36:15;24.20;;;15.37;;
23222;SDS011;11780;13.904;100.620;2023-11-19T13:38:46;26.17;;;16.77;;
23222;SDS011;11780;13.904;100.620;2023-11-19T13:41:16;21.85;;;15.38;;
23222;SDS011;11780;13.904;100.620;2023-11-19T13:43:47;24.57;;;16.47;;
23222;SDS011;11780;13.904;100.620;2023-11-19T13:46:17;24.00;;;16.17;;
23222;SDS011;11780;13.904;100.620;2023-11-19T13:48:47;27.45;;;16.77;;
23222;SDS011;11780;13.904;100.620;2023-11-19T13:51:19;27.38;;;15.68;;
23222;SDS011;11780;13.904;100.620;2023-11-19T13:53:49;27.95;;;16.52;;
23222;SDS011;11780;13.904;100.620;2023-11-19T13:56:19;27.77;;;16.60;;
23222;SDS011;11780;13.904;100.620;2023-11-19T13:58:49;22.00;;;14.98;;
23222;SDS011;11780;13.904;100.620;2023-11-19T14:01:20;24.88;;;15.52;;
23222;SDS011;11780;13.904;100.620;2023-11-19T14:03:52;22.90;;;15.98;;
23222;SDS011;11780;13.904;100.620;2023-11-19T14:06:23;29.13;;;15.90;;
23222;SDS011;11780;13.904;100.620;2023-11-19T14:08:53;26.00;;;16.52;;
23222;SDS011;11780;13.904;100.620;2023-11-19T14:11:24;25.88;;;17.13;;
23222;SDS011;11780;13.904;100.620;2023-11-19T14:13:54;23.00;;;15.95;;
23222;SDS011;11780;13.904;100.620;2023-11-19T14:16:27;25.98;;;15.30;;
23222;SDS011;11780;13.904;100.620;2023-11-19T14:18:58;24.55;;;17.45;;
23222;SDS011;11780;13.904;100.620;2023-11-19T14:21:28;24.65;;;16.83;;
23222;SDS011;11780;13.904;100.620;2023-11-19T14:23:59;26.00;;;16.00;;
23222;SDS011;11780;13.904;100.620;2023-11-19T14:26:29;22.17;;;15.73;;
23222;SDS011;11780;13.904;100.620;2023-11-19T14:28:59;23.90;;;15.95;;
23222;SDS011;11780;13.904;100.620;2023-11-19T14:31:29;22.95;;;15.90;;
23222;SDS011;11780;13.904;100.620;2023-11-19T14:34:00;25.92;;;16.88;;
23222;SDS011;11780;13.904;100.620;2023-11-19T14:36:30;24.88;;;15.27;;
23222;SDS011;11780;13.904;100.620;2023-11-19T14:39:00;21.48;;;16.55;;
23222;SDS011;11780;13.904;100.620;2023-11-19T14:41:31;25.13;;;16.20;;
23222;SDS011;11780;13.904;100.620;2023-11-19T14:44:01;23.30;;;15.95;;
23222;SDS011;11780;13.904;100.620;2023-11-19T14:49:02;25.55;;;16.63;;
23222;SDS011;11780;13.904;100.620;2023-11-19T14:51:48;23.60;;;16.10;;
23222;SDS011;11780;13.904;100.620;2023-11-19T14:54:18;25.00;;;16.58;;
23222;SDS011;11780;13.904;100.620;2023-11-19T14:56:48;26.60;;;16.60;;
23222;SDS011;11780;13.904;100.620;2023-11-19T14:59:18;28.98;;;16.73;;
23222;SDS011;11780;13.904;100.620;2023-11-19T15:01:48;23.13;;;16.48;;
23222;SDS011;11780;13.904;100.620;2023-11-19T15:04:19;22.27;;;15.63;;
23222;SDS011;11780;13.904;100.620;2023-11-19T15:06:49;24.48;;;15.13;;